Flight Track Log - Related Links

Times and Time Zones

All times are in EDT time to prevent confusion due to time zone crossing. See the N9334H flight status page for this flight to view local times or setup timezone preferences in your user account.

Time Position Orientation Groundspeed Altitude Reporting Facility
EDT Latitude Longitude Course Direction KTS MPH feet Rate Location/Type
Sun 11:59:46 AM 39.1333 -78.1000 360° North 113 130 3,500  Level Potomac TRACON
Sun 12:00:53 PM 39.1667 -78.0833 21° North 112 129 3,900 446 Climbing Potomac TRACON
Sun 12:01:47 PM 39.1833 -78.0667 38° Northeast 110 127 4,400 526 Climbing Potomac TRACON
Sun 12:02:47 PM 39.2000 -78.0333 57° Northeast 108 124 4,900 250 Climbing Potomac TRACON
Sun 12:03:47 PM 39.2167 -78.0000 57° Northeast 107 123 4,900 47 Level Potomac TRACON
Sun 12:04:00 PM 39.1073 -77.7580 94° East  Level FlightAware Approximate
Sun 12:04:54 PM 39.2333 -77.9833 38° Northeast 106 122 5,000  Level Potomac TRACON
Sun 12:05:48 PM 39.2500 -77.9500 57° Northeast 107 123 5,100 53 Climbing Potomac TRACON
Sun 12:06:48 PM 39.2667 -77.9167 57° Northeast 112 129 5,100 -33 Level Potomac TRACON
Sun 12:08:00 PM 39.2464 -77.8451 110° East  Level Estimated
Sun 12:08:49 PM 39.2833 -77.8333 110° East 112 129 5,000  Level Potomac TRACON
Sun 12:09:49 PM 39.3000 -77.8000 57° Northeast 110 127 4,900 -50 Descending Potomac TRACON
Sun 12:10:49 PM 39.3167 -77.7667 57° Northeast 111 128 4,900 104 Level Potomac TRACON
Sun 12:11:44 PM 39.3333 -77.7500 38° Northeast 107 123 5,100 99 Climbing Potomac TRACON
Sun 12:12:50 PM 39.3500 -77.7167 57° Northeast 103 119 5,100 -48 Level Potomac TRACON
Sun 12:13:50 PM 39.3667 -77.6833 57° Northeast 106 122 5,000 -53 Descending Potomac TRACON
Sun 12:14:44 PM 39.3833 -77.6667 38° Northeast 111 128 5,000  Level Potomac TRACON
Sun 12:15:44 PM 39.4000 -77.6333 57° Northeast 111 128 5,000  Level Potomac TRACON
Sun 12:16:44 PM 39.4167 -77.5833 67° East 105 121 5,000  Level Potomac TRACON
Sun 12:17:44 PM 39.4167 -77.5500 90° East 102 117 5,000  Level Potomac TRACON
Sun 12:18:44 PM 39.4333 -77.5167 57° Northeast 105 121 5,000  Level Potomac TRACON
Sun 12:19:38 PM 39.4500 -77.4833 57° Northeast 103 119 5,000 53 Level Potomac TRACON
Sun 12:20:38 PM 39.4500 -77.4500 90° East 90 104 5,100  Climbing Potomac TRACON
Sun 12:21:33 PM 39.4500 -77.4167 90° East 95 109 5,000  Descending Potomac TRACON
Sun 12:22:33 PM 39.4500 -77.3833 90° East 92 106 5,100 50 Climbing Potomac TRACON
Sun 12:23:33 PM 39.4500 -77.3500 90° East 98 113 5,100 -50 Level Potomac TRACON
Sun 12:24:33 PM 39.4500 -77.3167 90° East 98 113 5,000 -50 Descending Potomac TRACON
Sun 12:25:33 PM 39.4333 -77.3000 142° Southeast 90 104 5,000 50 Level Potomac TRACON
Sun 12:26:33 PM 39.4167 -77.2833 142° Southeast 90 104 5,100 -150 Climbing Potomac TRACON
Sun 12:27:33 PM 39.4000 -77.2667 142° Southeast 92 106 4,700 -522 Descending Potomac TRACON
Sun 12:28:28 PM 39.3667 -77.2500 159° South 91 105 4,100 -737 Descending Potomac TRACON
Sun 12:29:27 PM 39.3500 -77.2333 142° Southeast 91 105 3,300 -550 Descending Potomac TRACON
Sun 12:30:28 PM 39.3333 -77.2333 180° South 85 98 3,000 -157 Descending Potomac TRACON
Sun 12:31:22 PM 39.3000 -77.2167 159° South 85 98 3,000 53 Level Potomac TRACON
Sun 12:32:22 PM 39.2833 -77.2000 142° Southeast 90 104 3,100  Climbing Potomac TRACON
Sun 12:33:22 PM 39.2667 -77.2000 180° South 92 106 3,000  Descending Potomac TRACON
Sun 12:34:28 PM 39.2333 -77.1833 159° South 100 115 3,100  Climbing Potomac TRACON
Sun 12:35:22 PM 39.2167 -77.1667 142° Southeast 92 106 3,000  Descending Potomac TRACON
Sun 12:36:23 PM 39.2000 -77.1667 180° South 84 97 3,100 50 Climbing Potomac TRACON
Sun 12:37:23 PM 39.1667 -77.1500 159° South 98 113 3,100 -250 Level Potomac TRACON
Sun 12:38:23 PM 39.1500 -77.1333 142° Southeast 96 110 2,600 -450 Descending Potomac TRACON
Sun 12:39:23 PM 39.1167 -77.1167 159° South 90 104 2,200 -250 Descending Potomac TRACON
Sun 12:40:23 PM 39.1000 -77.1000 142° Southeast 87 100 2,100 -50 Descending Potomac TRACON
Sun 12:41:23 PM 39.0833 -77.1000 180° South 95 109 2,100 -198 Level Potomac TRACON
Sun 12:42:24 PM 39.0667 -77.0667 123° Southeast 94 108 1,700 -248 Descending Potomac TRACON
Sun 12:43:24 PM 39.0500 -77.0500 142° Southeast 83 96 1,600  Descending Potomac TRACON
Sun 12:44:24 PM 39.0333 -77.0167 123° Southeast 79 91 1,700 99 Climbing Potomac TRACON
Sun 12:45:25 PM 39.0167 -77.0000 142° Southeast 79 91 1,800 -157 Climbing Potomac TRACON
Sun 12:46:19 PM 39.0167 -76.9833 90° East 92 106 1,400 -444 Descending Potomac TRACON

Login

Don't have an account? Register now (free) for customized features, flight alerts, and more!